Aviation Digital Data Service (ADDS)

Output produced by METARs form (0442 UTC 22 October 2014)
found at http://aviationweather.gov/adds/metars/
 
KLFT 220353Z AUTO 00000KT 10SM CLR 17/16 A3005 RMK AO2 SLP174 T01720161